Terminal Aerodrome Forecast
Issued by NWS

Home | Current Version | Previous Version | Graphics & Text | Print | Product List | Glossary On
Versions: 1 2 3 4 5 6 7 8 9 10 11 12 13 14 15 16 17 18
000
FTUS42 KMHX 230500
TAFPGV
TAF
KPGV 230537Z 2306/2406 VRB03KT P6SM SCT007 BKN015
      TEMPO 2306/2307 BKN007
     FM230700 00000KT 3SM BR BKN005
     FM231300 22006KT P6SM BKN015
     FM231600 24007KT P6SM VCTS SCT020 BKN035CB
     FM232300 21003KT P6SM SCT025 BKN100
      AMD LTD TO CLD VIS AND WIND=

USA.gov is the U.S. government's official web portal to all federal, state and local government web resources and services.